sensor_id;sensor_type;location;lat;lon;timestamp;temperature;humidity
1614;DHT22;800;48.824;9.346;2022-12-29T00:01:17;13.60;52.10
1614;DHT22;800;48.824;9.346;2022-12-29T00:03:45;13.70;52.00
1614;DHT22;800;48.824;9.346;2022-12-29T00:06:11;13.70;51.90
1614;DHT22;800;48.824;9.346;2022-12-29T00:08:37;13.70;51.80
1614;DHT22;800;48.824;9.346;2022-12-29T00:11:13;13.70;51.90
1614;DHT22;800;48.824;9.346;2022-12-29T00:13:39;13.70;51.80
1614;DHT22;800;48.824;9.346;2022-12-29T00:16:24;13.70;51.70
1614;DHT22;800;48.824;9.346;2022-12-29T00:18:50;13.70;51.80
1614;DHT22;800;48.824;9.346;2022-12-29T00:21:17;13.50;52.00
1614;DHT22;800;48.824;9.346;2022-12-29T00:24:02;13.50;52.20
1614;DHT22;800;48.824;9.346;2022-12-29T00:26:49;13.60;52.10
1614;DHT22;800;48.824;9.346;2022-12-29T00:29:36;13.50;52.40
1614;DHT22;800;48.824;9.346;2022-12-29T00:32:21;13.10;52.70
1614;DHT22;800;48.824;9.346;2022-12-29T00:35:09;13.20;53.10
1614;DHT22;800;48.824;9.346;2022-12-29T00:37:37;13.10;52.80
1614;DHT22;800;48.824;9.346;2022-12-29T00:40:22;13.10;53.00
1614;DHT22;800;48.824;9.346;2022-12-29T00:43:06;13.10;53.10
1614;DHT22;800;48.824;9.346;2022-12-29T00:45:50;13.10;53.10
1614;DHT22;800;48.824;9.346;2022-12-29T00:48:15;13.20;53.10
1614;DHT22;800;48.824;9.346;2022-12-29T00:51:01;13.30;53.10
1614;DHT22;800;48.824;9.346;2022-12-29T00:53:26;13.40;52.70
1614;DHT22;800;48.824;9.346;2022-12-29T00:55:52;13.40;52.70
1614;DHT22;800;48.824;9.346;2022-12-29T00:58:17;13.50;52.50
1614;DHT22;800;48.824;9.346;2022-12-29T01:00:43;13.70;52.10
1614;DHT22;800;48.824;9.346;2022-12-29T01:03:08;13.40;52.40
1614;DHT22;800;48.824;9.346;2022-12-29T01:05:36;13.50;52.70
1614;DHT22;800;48.824;9.346;2022-12-29T01:08:02;13.70;52.30
1614;DHT22;800;48.824;9.346;2022-12-29T01:10:27;13.80;52.10
1614;DHT22;800;48.824;9.346;2022-12-29T01:12:53;13.80;52.20
1614;DHT22;800;48.824;9.346;2022-12-29T01:15:19;13.70;51.90
1614;DHT22;800;48.824;9.346;2022-12-29T01:17:44;13.80;51.90
1614;DHT22;800;48.824;9.346;2022-12-29T01:20:11;13.90;51.80
1614;DHT22;800;48.824;9.346;2022-12-29T01:22:36;14.10;51.60
1614;DHT22;800;48.824;9.346;2022-12-29T01:25:03;14.20;51.30
1614;DHT22;800;48.824;9.346;2022-12-29T01:27:29;14.30;51.10
1614;DHT22;800;48.824;9.346;2022-12-29T01:29:55;14.30;50.80
1614;DHT22;800;48.824;9.346;2022-12-29T01:32:20;14.20;50.80
1614;DHT22;800;48.824;9.346;2022-12-29T01:34:46;14.10;50.80
1614;DHT22;800;48.824;9.346;2022-12-29T01:37:11;14.20;50.80
1614;DHT22;800;48.824;9.346;2022-12-29T01:39:37;14.40;50.50
1614;DHT22;800;48.824;9.346;2022-12-29T01:42:03;14.50;50.30
1614;DHT22;800;48.824;9.346;2022-12-29T01:47:33;14.70;49.80
1614;DHT22;800;48.824;9.346;2022-12-29T01:50:09;14.60;49.60
1614;DHT22;800;48.824;9.346;2022-12-29T01:52:38;14.60;49.80
1614;DHT22;800;48.824;9.346;2022-12-29T01:55:06;14.60;49.80
1614;DHT22;800;48.824;9.346;2022-12-29T01:57:37;14.70;49.60
1614;DHT22;800;48.824;9.346;2022-12-29T02:00:06;14.80;49.60
1614;DHT22;800;48.824;9.346;2022-12-29T02:02:34;14.80;49.40
1614;DHT22;800;48.824;9.346;2022-12-29T02:05:04;14.90;49.40
1614;DHT22;800;48.824;9.346;2022-12-29T02:07:31;14.90;49.30
1614;DHT22;800;48.824;9.346;2022-12-29T02:09:58;14.80;49.20
1614;DHT22;800;48.824;9.346;2022-12-29T02:12:25;14.80;49.20
1614;DHT22;800;48.824;9.346;2022-12-29T02:14:55;14.60;49.50
1614;DHT22;800;48.824;9.346;2022-12-29T02:17:44;14.50;49.60
1614;DHT22;800;48.824;9.346;2022-12-29T02:33:55;14.70;49.70
1614;DHT22;800;48.824;9.346;2022-12-29T02:47:50;14.90;49.50
1614;DHT22;800;48.824;9.346;2022-12-29T02:50:23;15.00;49.40
1614;DHT22;800;48.824;9.346;2022-12-29T02:53:02;15.00;49.40
1614;DHT22;800;48.824;9.346;2022-12-29T02:55:30;15.00;49.20
1614;DHT22;800;48.824;9.346;2022-12-29T02:58:18;14.90;49.40
1614;DHT22;800;48.824;9.346;2022-12-29T03:09:29;15.00;49.10
1614;DHT22;800;48.824;9.346;2022-12-29T03:15:03;14.90;49.40
1614;DHT22;800;48.824;9.346;2022-12-29T03:18:10;15.10;49.30
1614;DHT22;800;48.824;9.346;2022-12-29T03:20:44;15.00;49.30
1614;DHT22;800;48.824;9.346;2022-12-29T03:23:13;15.00;49.30
1614;DHT22;800;48.824;9.346;2022-12-29T03:25:42;15.10;49.30
1614;DHT22;800;48.824;9.346;2022-12-29T03:28:30;15.20;49.30
1614;DHT22;800;48.824;9.346;2022-12-29T03:30:58;15.20;49.30
1614;DHT22;800;48.824;9.346;2022-12-29T03:33:27;15.10;49.10
1614;DHT22;800;48.824;9.346;2022-12-29T03:35:59;15.20;49.00
1614;DHT22;800;48.824;9.346;2022-12-29T03:38:33;14.90;48.80
1614;DHT22;800;48.824;9.346;2022-12-29T03:41:03;14.90;49.30
1614;DHT22;800;48.824;9.346;2022-12-29T03:43:30;15.10;49.30
1614;DHT22;800;48.824;9.346;2022-12-29T03:45:56;15.10;49.00
1614;DHT22;800;48.824;9.346;2022-12-29T03:48:21;15.00;49.10
1614;DHT22;800;48.824;9.346;2022-12-29T03:50:47;15.10;49.10
1614;DHT22;800;48.824;9.346;2022-12-29T03:53:12;15.00;49.30
1614;DHT22;800;48.824;9.346;2022-12-29T03:55:38;15.10;49.00
1614;DHT22;800;48.824;9.346;2022-12-29T03:58:04;15.30;49.00
1614;DHT22;800;48.824;9.346;2022-12-29T04:00:30;15.20;48.90
1614;DHT22;800;48.824;9.346;2022-12-29T04:02:55;15.20;48.90
1614;DHT22;800;48.824;9.346;2022-12-29T04:05:21;15.00;48.90
1614;DHT22;800;48.824;9.346;2022-12-29T04:07:46;15.00;49.50
1614;DHT22;800;48.824;9.346;2022-12-29T04:10:12;15.20;49.30
1614;DHT22;800;48.824;9.346;2022-12-29T04:12:38;15.40;48.80
1614;DHT22;800;48.824;9.346;2022-12-29T04:15:04;15.30;49.10
1614;DHT22;800;48.824;9.346;2022-12-29T04:17:29;15.20;49.10
1614;DHT22;800;48.824;9.346;2022-12-29T04:19:55;15.20;49.10
1614;DHT22;800;48.824;9.346;2022-12-29T04:22:43;15.20;49.20
1614;DHT22;800;48.824;9.346;2022-12-29T04:25:09;15.10;49.30
1614;DHT22;800;48.824;9.346;2022-12-29T04:27:34;15.10;49.80
1614;DHT22;800;48.824;9.346;2022-12-29T04:30:00;14.90;50.10
1614;DHT22;800;48.824;9.346;2022-12-29T04:32:26;15.10;50.10
1614;DHT22;800;48.824;9.346;2022-12-29T04:34:51;14.90;50.20
1614;DHT22;800;48.824;9.346;2022-12-29T04:37:17;14.90;50.60
1614;DHT22;800;48.824;9.346;2022-12-29T04:39:42;14.90;50.70
1614;DHT22;800;48.824;9.346;2022-12-29T04:42:08;15.20;50.50
1614;DHT22;800;48.824;9.346;2022-12-29T04:44:33;15.00;50.50
1614;DHT22;800;48.824;9.346;2022-12-29T04:46:59;14.80;50.90
1614;DHT22;800;48.824;9.346;2022-12-29T04:49:24;14.80;51.20
1614;DHT22;800;48.824;9.346;2022-12-29T04:51:50;14.90;51.30
1614;DHT22;800;48.824;9.346;2022-12-29T04:54:15;14.50;51.60
1614;DHT22;800;48.824;9.346;2022-12-29T04:56:41;14.50;52.30
1614;DHT22;800;48.824;9.346;2022-12-29T04:59:07;14.50;52.80
1614;DHT22;800;48.824;9.346;2022-12-29T05:01:32;14.60;52.30
1614;DHT22;800;48.824;9.346;2022-12-29T05:03:58;14.50;52.60
1614;DHT22;800;48.824;9.346;2022-12-29T05:06:23;14.60;52.60
1614;DHT22;800;48.824;9.346;2022-12-29T05:08:49;14.70;52.20
1614;DHT22;800;48.824;9.346;2022-12-29T05:11:14;14.80;52.40
1614;DHT22;800;48.824;9.346;2022-12-29T05:13:40;14.90;52.30
1614;DHT22;800;48.824;9.346;2022-12-29T05:16:06;14.90;52.30
1614;DHT22;800;48.824;9.346;2022-12-29T05:18:31;14.90;52.70
1614;DHT22;800;48.824;9.346;2022-12-29T05:20:57;15.00;52.10
1614;DHT22;800;48.824;9.346;2022-12-29T05:23:22;15.10;52.30
1614;DHT22;800;48.824;9.346;2022-12-29T05:25:48;15.10;52.00
1614;DHT22;800;48.824;9.346;2022-12-29T05:28:14;14.90;52.40
1614;DHT22;800;48.824;9.346;2022-12-29T05:30:39;15.10;52.50
1614;DHT22;800;48.824;9.346;2022-12-29T05:33:05;14.90;52.40
1614;DHT22;800;48.824;9.346;2022-12-29T05:35:32;15.10;52.40
1614;DHT22;800;48.824;9.346;2022-12-29T05:37:57;15.20;51.80
1614;DHT22;800;48.824;9.346;2022-12-29T05:40:23;15.20;51.60
1614;DHT22;800;48.824;9.346;2022-12-29T05:42:49;15.20;51.50
1614;DHT22;800;48.824;9.346;2022-12-29T05:45:14;15.30;51.10
1614;DHT22;800;48.824;9.346;2022-12-29T05:47:40;15.10;51.30
1614;DHT22;800;48.824;9.346;2022-12-29T05:50:06;15.00;51.30
1614;DHT22;800;48.824;9.346;2022-12-29T05:52:31;15.10;51.30
1614;DHT22;800;48.824;9.346;2022-12-29T05:54:57;15.10;51.30
1614;DHT22;800;48.824;9.346;2022-12-29T05:57:23;15.10;51.00
1614;DHT22;800;48.824;9.346;2022-12-29T05:59:48;15.20;51.00
1614;DHT22;800;48.824;9.346;2022-12-29T06:02:14;15.10;50.90
1614;DHT22;800;48.824;9.346;2022-12-29T06:04:39;14.80;51.80
1614;DHT22;800;48.824;9.346;2022-12-29T06:07:05;14.70;51.70
1614;DHT22;800;48.824;9.346;2022-12-29T06:09:30;14.80;51.50
1614;DHT22;800;48.824;9.346;2022-12-29T06:11:56;14.80;51.20
1614;DHT22;800;48.824;9.346;2022-12-29T06:14:21;14.80;51.20
1614;DHT22;800;48.824;9.346;2022-12-29T06:16:47;14.90;51.00
1614;DHT22;800;48.824;9.346;2022-12-29T06:19:13;15.00;50.80
1614;DHT22;800;48.824;9.346;2022-12-29T06:21:38;15.00;50.60
1614;DHT22;800;48.824;9.346;2022-12-29T06:24:04;15.00;50.60
1614;DHT22;800;48.824;9.346;2022-12-29T06:26:30;15.00;50.50
1614;DHT22;800;48.824;9.346;2022-12-29T06:28:56;15.00;50.50
1614;DHT22;800;48.824;9.346;2022-12-29T06:31:21;15.20;50.30
1614;DHT22;800;48.824;9.346;2022-12-29T06:33:47;15.20;49.90
1614;DHT22;800;48.824;9.346;2022-12-29T06:36:13;15.30;49.90
1614;DHT22;800;48.824;9.346;2022-12-29T06:38:38;15.20;49.80
1614;DHT22;800;48.824;9.346;2022-12-29T06:41:04;15.20;49.80
1614;DHT22;800;48.824;9.346;2022-12-29T06:43:29;15.20;49.80
1614;DHT22;800;48.824;9.346;2022-12-29T06:45:56;15.20;49.70
1614;DHT22;800;48.824;9.346;2022-12-29T06:48:21;15.20;49.70
1614;DHT22;800;48.824;9.346;2022-12-29T06:50:47;15.30;49.80
1614;DHT22;800;48.824;9.346;2022-12-29T06:53:12;15.30;49.60
1614;DHT22;800;48.824;9.346;2022-12-29T06:55:38;15.40;49.50
1614;DHT22;800;48.824;9.346;2022-12-29T06:58:03;15.40;49.30
1614;DHT22;800;48.824;9.346;2022-12-29T07:00:29;15.40;49.10
1614;DHT22;800;48.824;9.346;2022-12-29T07:02:55;15.30;49.30
1614;DHT22;800;48.824;9.346;2022-12-29T07:05:23;15.20;49.50
1614;DHT22;800;48.824;9.346;2022-12-29T07:07:50;15.10;50.10
1614;DHT22;800;48.824;9.346;2022-12-29T07:10:16;15.10;49.60
1614;DHT22;800;48.824;9.346;2022-12-29T07:12:41;14.90;49.80
1614;DHT22;800;48.824;9.346;2022-12-29T07:15:07;14.90;50.10
1614;DHT22;800;48.824;9.346;2022-12-29T07:17:33;14.90;50.30
1614;DHT22;800;48.824;9.346;2022-12-29T07:19:59;14.90;50.40
1614;DHT22;800;48.824;9.346;2022-12-29T07:22:25;14.80;51.30
1614;DHT22;800;48.824;9.346;2022-12-29T07:24:51;14.80;50.80
1614;DHT22;800;48.824;9.346;2022-12-29T07:27:16;14.90;50.80
1614;DHT22;800;48.824;9.346;2022-12-29T07:29:42;14.80;50.80
1614;DHT22;800;48.824;9.346;2022-12-29T07:32:07;14.80;51.00
1614;DHT22;800;48.824;9.346;2022-12-29T07:34:33;14.80;51.00
1614;DHT22;800;48.824;9.346;2022-12-29T07:36:58;15.10;51.00
1614;DHT22;800;48.824;9.346;2022-12-29T07:39:24;15.50;50.20
1614;DHT22;800;48.824;9.346;2022-12-29T07:41:50;15.90;49.30
1614;DHT22;800;48.824;9.346;2022-12-29T07:44:16;16.00;48.70
1614;DHT22;800;48.824;9.346;2022-12-29T07:46:41;16.10;48.70
1614;DHT22;800;48.824;9.346;2022-12-29T07:49:07;15.90;48.90
1614;DHT22;800;48.824;9.346;2022-12-29T07:51:32;15.80;49.10
1614;DHT22;800;48.824;9.346;2022-12-29T07:53:58;15.60;49.80
1614;DHT22;800;48.824;9.346;2022-12-29T07:56:26;15.60;49.80
1614;DHT22;800;48.824;9.346;2022-12-29T07:58:51;15.50;50.00
1614;DHT22;800;48.824;9.346;2022-12-29T08:01:17;15.50;50.10
1614;DHT22;800;48.824;9.346;2022-12-29T08:03:43;15.40;50.60
1614;DHT22;800;48.824;9.346;2022-12-29T08:06:10;15.30;50.50
1614;DHT22;800;48.824;9.346;2022-12-29T08:08:35;15.40;50.60
1614;DHT22;800;48.824;9.346;2022-12-29T08:11:01;15.40;50.60
1614;DHT22;800;48.824;9.346;2022-12-29T08:13:27;15.30;50.70
1614;DHT22;800;48.824;9.346;2022-12-29T08:15:52;15.40;50.70
1614;DHT22;800;48.824;9.346;2022-12-29T08:18:18;15.30;50.80
1614;DHT22;800;48.824;9.346;2022-12-29T08:20:43;15.40;50.80
1614;DHT22;800;48.824;9.346;2022-12-29T08:23:09;15.40;50.90
1614;DHT22;800;48.824;9.346;2022-12-29T08:25:35;15.50;50.80
1614;DHT22;800;48.824;9.346;2022-12-29T08:28:01;15.50;50.70
1614;DHT22;800;48.824;9.346;2022-12-29T08:30:26;15.60;50.70
1614;DHT22;800;48.824;9.346;2022-12-29T08:32:52;15.40;50.80
1614;DHT22;800;48.824;9.346;2022-12-29T08:35:18;15.50;50.80
1614;DHT22;800;48.824;9.346;2022-12-29T08:37:43;15.70;50.70
1614;DHT22;800;48.824;9.346;2022-12-29T08:40:09;15.70;50.70
1614;DHT22;800;48.824;9.346;2022-12-29T08:42:35;15.60;50.70
1614;DHT22;800;48.824;9.346;2022-12-29T08:45:01;15.60;50.90
1614;DHT22;800;48.824;9.346;2022-12-29T08:47:27;15.60;51.00
1614;DHT22;800;48.824;9.346;2022-12-29T08:49:55;15.60;51.00
1614;DHT22;800;48.824;9.346;2022-12-29T08:52:21;15.60;51.10
1614;DHT22;800;48.824;9.346;2022-12-29T08:54:46;15.70;50.90
1614;DHT22;800;48.824;9.346;2022-12-29T08:57:12;15.80;50.80
1614;DHT22;800;48.824;9.346;2022-12-29T08:59:37;15.80;50.50
1614;DHT22;800;48.824;9.346;2022-12-29T09:02:03;15.80;50.50
1614;DHT22;800;48.824;9.346;2022-12-29T09:04:29;15.70;50.60
1614;DHT22;800;48.824;9.346;2022-12-29T09:06:54;15.70;50.50
1614;DHT22;800;48.824;9.346;2022-12-29T09:09:20;15.50;50.50
1614;DHT22;800;48.824;9.346;2022-12-29T09:11:46;15.60;50.90
1614;DHT22;800;48.824;9.346;2022-12-29T09:14:12;15.50;50.50
1614;DHT22;800;48.824;9.346;2022-12-29T09:16:39;15.50;50.80
1614;DHT22;800;48.824;9.346;2022-12-29T09:19:25;15.20;50.40
1614;DHT22;800;48.824;9.346;2022-12-29T09:21:51;15.40;50.70
1614;DHT22;800;48.824;9.346;2022-12-29T09:24:16;15.50;50.50
1614;DHT22;800;48.824;9.346;2022-12-29T09:26:42;15.60;50.50
1614;DHT22;800;48.824;9.346;2022-12-29T09:29:07;15.70;50.40
1614;DHT22;800;48.824;9.346;2022-12-29T09:31:33;15.80;50.40
1614;DHT22;800;48.824;9.346;2022-12-29T09:33:58;15.70;50.20
1614;DHT22;800;48.824;9.346;2022-12-29T09:36:24;15.80;49.90
1614;DHT22;800;48.824;9.346;2022-12-29T09:38:49;15.70;49.80
1614;DHT22;800;48.824;9.346;2022-12-29T09:41:26;15.60;50.00
1614;DHT22;800;48.824;9.346;2022-12-29T09:46:37;15.80;50.20
1614;DHT22;800;48.824;9.346;2022-12-29T09:51:31;15.80;49.90
1614;DHT22;800;48.824;9.346;2022-12-29T09:54:00;15.90;49.80
1614;DHT22;800;48.824;9.346;2022-12-29T09:56:28;15.90;49.80
1614;DHT22;800;48.824;9.346;2022-12-29T09:59:02;16.20;49.50
1614;DHT22;800;48.824;9.346;2022-12-29T10:04:20;16.10;49.50
1614;DHT22;800;48.824;9.346;2022-12-29T10:06:56;16.10;49.30
1614;DHT22;800;48.824;9.346;2022-12-29T10:09:53;16.20;49.90
1614;DHT22;800;48.824;9.346;2022-12-29T10:12:33;16.30;49.60
1614;DHT22;800;48.824;9.346;2022-12-29T10:15:18;16.20;49.40
1614;DHT22;800;48.824;9.346;2022-12-29T10:21:02;16.10;49.60
1614;DHT22;800;48.824;9.346;2022-12-29T10:23:35;16.30;49.50
1614;DHT22;800;48.824;9.346;2022-12-29T10:26:07;16.30;49.80
1614;DHT22;800;48.824;9.346;2022-12-29T10:28:45;16.30;49.60
1614;DHT22;800;48.824;9.346;2022-12-29T10:31:19;16.20;49.70
1614;DHT22;800;48.824;9.346;2022-12-29T10:33:49;16.20;50.20
1614;DHT22;800;48.824;9.346;2022-12-29T10:36:18;16.00;50.60
1614;DHT22;800;48.824;9.346;2022-12-29T10:39:19;15.90;50.70
1614;DHT22;800;48.824;9.346;2022-12-29T10:42:03;16.00;51.00
1614;DHT22;800;48.824;9.346;2022-12-29T10:44:31;16.10;50.90
1614;DHT22;800;48.824;9.346;2022-12-29T10:47:07;15.90;51.20
1614;DHT22;800;48.824;9.346;2022-12-29T10:49:42;16.00;51.40
1614;DHT22;800;48.824;9.346;2022-12-29T10:52:09;16.00;51.60
1614;DHT22;800;48.824;9.346;2022-12-29T10:57:28;15.90;51.70
1614;DHT22;800;48.824;9.346;2022-12-29T10:59:57;16.10;52.30
1614;DHT22;800;48.824;9.346;2022-12-29T11:02:43;16.20;51.60
1614;DHT22;800;48.824;9.346;2022-12-29T11:05:19;16.40;51.50
1614;DHT22;800;48.824;9.346;2022-12-29T11:07:50;16.30;51.50
1614;DHT22;800;48.824;9.346;2022-12-29T11:10:28;16.60;51.40
1614;DHT22;800;48.824;9.346;2022-12-29T11:13:00;16.70;50.90
1614;DHT22;800;48.824;9.346;2022-12-29T11:15:26;16.60;50.70
1614;DHT22;800;48.824;9.346;2022-12-29T11:18:01;16.40;51.30
1614;DHT22;800;48.824;9.346;2022-12-29T11:20:33;16.40;51.30
1614;DHT22;800;48.824;9.346;2022-12-29T11:22:59;16.50;51.70
1614;DHT22;800;48.824;9.346;2022-12-29T11:25:25;16.60;51.40
1614;DHT22;800;48.824;9.346;2022-12-29T11:28:03;16.60;51.30
1614;DHT22;800;48.824;9.346;2022-12-29T11:30:31;16.60;51.50
1614;DHT22;800;48.824;9.346;2022-12-29T11:32:57;16.60;51.60
1614;DHT22;800;48.824;9.346;2022-12-29T11:35:49;16.60;51.30
1614;DHT22;800;48.824;9.346;2022-12-29T11:38:32;16.70;51.50
1614;DHT22;800;48.824;9.346;2022-12-29T11:40:58;16.60;50.90
1614;DHT22;800;48.824;9.346;2022-12-29T11:43:33;16.50;51.30
1614;DHT22;800;48.824;9.346;2022-12-29T11:46:00;16.30;51.20
1614;DHT22;800;48.824;9.346;2022-12-29T11:48:49;16.30;51.50
1614;DHT22;800;48.824;9.346;2022-12-29T11:53:56;16.20;51.40
1614;DHT22;800;48.824;9.346;2022-12-29T11:56:39;16.10;51.80
1614;DHT22;800;48.824;9.346;2022-12-29T11:59:34;16.20;52.00
1614;DHT22;800;48.824;9.346;2022-12-29T12:04:51;16.00;52.70
1614;DHT22;800;48.824;9.346;2022-12-29T12:07:35;15.90;53.40
1614;DHT22;800;48.824;9.346;2022-12-29T12:10:04;16.10;53.90
1614;DHT22;800;48.824;9.346;2022-12-29T12:12:41;16.00;54.10
1614;DHT22;800;48.824;9.346;2022-12-29T12:15:25;15.80;55.20
1614;DHT22;800;48.824;9.346;2022-12-29T12:18:16;15.90;56.50
1614;DHT22;800;48.824;9.346;2022-12-29T12:20:52;16.00;56.40
1614;DHT22;800;48.824;9.346;2022-12-29T12:23:52;15.80;57.00
1614;DHT22;800;48.824;9.346;2022-12-29T12:26:31;16.00;57.30
1614;DHT22;800;48.824;9.346;2022-12-29T12:29:04;16.10;56.50
1614;DHT22;800;48.824;9.346;2022-12-29T12:34:13;16.20;56.40
1614;DHT22;800;48.824;9.346;2022-12-29T12:36:59;16.30;56.30
1614;DHT22;800;48.824;9.346;2022-12-29T12:45:07;16.30;55.50
1614;DHT22;800;48.824;9.346;2022-12-29T13:10:15;15.40;57.40
1614;DHT22;800;48.824;9.346;2022-12-29T13:12:52;15.50;57.80
1614;DHT22;800;48.824;9.346;2022-12-29T13:18:31;15.90;57.40
1614;DHT22;800;48.824;9.346;2022-12-29T13:23:51;16.30;57.10
1614;DHT22;800;48.824;9.346;2022-12-29T13:26:31;16.30;56.80
1614;DHT22;800;48.824;9.346;2022-12-29T13:29:06;16.00;57.30
1614;DHT22;800;48.824;9.346;2022-12-29T13:37:57;15.80;57.50
1614;DHT22;800;48.824;9.346;2022-12-29T13:40:26;15.80;58.00
1614;DHT22;800;48.824;9.346;2022-12-29T13:42:55;16.00;58.00
1614;DHT22;800;48.824;9.346;2022-12-29T13:45:24;15.80;57.40
1614;DHT22;800;48.824;9.346;2022-12-29T13:48:05;15.50;57.90
1614;DHT22;800;48.824;9.346;2022-12-29T13:50:35;15.60;58.50
1614;DHT22;800;48.824;9.346;2022-12-29T13:55:56;15.50;58.10
1614;DHT22;800;48.824;9.346;2022-12-29T13:58:39;15.50;58.30
1614;DHT22;800;48.824;9.346;2022-12-29T14:03:58;15.50;58.20
1614;DHT22;800;48.824;9.346;2022-12-29T14:06:32;15.30;58.10
1614;DHT22;800;48.824;9.346;2022-12-29T14:09:02;15.30;58.70
1614;DHT22;800;48.824;9.346;2022-12-29T14:11:32;15.50;58.60
1614;DHT22;800;48.824;9.346;2022-12-29T14:13:59;15.40;58.40
1614;DHT22;800;48.824;9.346;2022-12-29T14:16:29;15.40;58.60
1614;DHT22;800;48.824;9.346;2022-12-29T14:19:03;15.30;58.80
1614;DHT22;800;48.824;9.346;2022-12-29T14:21:29;15.20;58.80
1614;DHT22;800;48.824;9.346;2022-12-29T14:27:51;15.50;58.70
1614;DHT22;800;48.824;9.346;2022-12-29T14:29:47;15.50;58.40
1614;DHT22;800;48.824;9.346;2022-12-29T14:34:56;15.90;57.90
1614;DHT22;800;48.824;9.346;2022-12-29T14:37:28;16.10;57.50
1614;DHT22;800;48.824;9.346;2022-12-29T14:42:40;16.10;57.30
1614;DHT22;800;48.824;9.346;2022-12-29T14:47:46;16.10;57.50
1614;DHT22;800;48.824;9.346;2022-12-29T14:50:26;16.10;57.40
1614;DHT22;800;48.824;9.346;2022-12-29T14:53:02;16.20;57.40
1614;DHT22;800;48.824;9.346;2022-12-29T14:58:26;16.20;56.80
1614;DHT22;800;48.824;9.346;2022-12-29T15:00:52;16.10;57.10
1614;DHT22;800;48.824;9.346;2022-12-29T15:03:48;16.20;56.90
1614;DHT22;800;48.824;9.346;2022-12-29T15:06:18;16.00;57.00
1614;DHT22;800;48.824;9.346;2022-12-29T15:08:54;16.00;57.40
1614;DHT22;800;48.824;9.346;2022-12-29T15:11:42;16.10;57.30
1614;DHT22;800;48.824;9.346;2022-12-29T15:14:34;16.10;57.10
1614;DHT22;800;48.824;9.346;2022-12-29T15:17:01;16.00;57.20
1614;DHT22;800;48.824;9.346;2022-12-29T15:19:27;15.80;57.40
1614;DHT22;800;48.824;9.346;2022-12-29T15:21:54;15.80;57.60
1614;DHT22;800;48.824;9.346;2022-12-29T15:24:20;15.90;57.60
1614;DHT22;800;48.824;9.346;2022-12-29T15:26:48;15.90;57.40
1614;DHT22;800;48.824;9.346;2022-12-29T15:29:37;16.10;57.30
1614;DHT22;800;48.824;9.346;2022-12-29T15:34:42;15.80;57.10
1614;DHT22;800;48.824;9.346;2022-12-29T15:37:08;15.90;57.20
1614;DHT22;800;48.824;9.346;2022-12-29T15:39:34;15.80;57.10
1614;DHT22;800;48.824;9.346;2022-12-29T15:45:11;15.90;57.00
1614;DHT22;800;48.824;9.346;2022-12-29T15:47:39;15.90;57.00
1614;DHT22;800;48.824;9.346;2022-12-29T15:50:14;16.10;56.80
1614;DHT22;800;48.824;9.346;2022-12-29T15:52:41;16.00;56.40
1614;DHT22;800;48.824;9.346;2022-12-29T15:55:35;16.00;56.70
1614;DHT22;800;48.824;9.346;2022-12-29T15:58:05;15.80;56.60
1614;DHT22;800;48.824;9.346;2022-12-29T16:00:33;15.80;57.30
1614;DHT22;800;48.824;9.346;2022-12-29T16:03:01;15.30;59.00
1614;DHT22;800;48.824;9.346;2022-12-29T16:05:35;15.50;61.00
1614;DHT22;800;48.824;9.346;2022-12-29T16:08:03;15.60;61.50
1614;DHT22;800;48.824;9.346;2022-12-29T16:10:38;15.30;61.80
1614;DHT22;800;48.824;9.346;2022-12-29T16:15:39;15.20;61.90
1614;DHT22;800;48.824;9.346;2022-12-29T16:18:05;15.20;62.80
1614;DHT22;800;48.824;9.346;2022-12-29T16:20:40;15.00;62.70
1614;DHT22;800;48.824;9.346;2022-12-29T16:23:18;15.10;63.00
1614;DHT22;800;48.824;9.346;2022-12-29T16:25:45;15.00;62.90
1614;DHT22;800;48.824;9.346;2022-12-29T16:28:39;15.10;62.90
1614;DHT22;800;48.824;9.346;2022-12-29T16:33:57;14.80;63.80
1614;DHT22;800;48.824;9.346;2022-12-29T16:36:51;14.70;63.80
1614;DHT22;800;48.824;9.346;2022-12-29T16:39:28;14.80;63.60
1614;DHT22;800;48.824;9.346;2022-12-29T16:41:55;14.90;63.50
1614;DHT22;800;48.824;9.346;2022-12-29T16:44:24;15.00;63.00
1614;DHT22;800;48.824;9.346;2022-12-29T16:47:00;15.20;62.70
1614;DHT22;800;48.824;9.346;2022-12-29T16:49:27;15.30;62.20
1614;DHT22;800;48.824;9.346;2022-12-29T16:51:53;15.30;62.20
1614;DHT22;800;48.824;9.346;2022-12-29T16:54:26;15.30;62.20
1614;DHT22;800;48.824;9.346;2022-12-29T16:56:55;15.30;61.90
1614;DHT22;800;48.824;9.346;2022-12-29T16:59:34;15.50;61.40
1614;DHT22;800;48.824;9.346;2022-12-29T17:02:07;15.70;61.10
1614;DHT22;800;48.824;9.346;2022-12-29T17:04:33;15.80;60.90
1614;DHT22;800;48.824;9.346;2022-12-29T17:06:58;15.80;61.00
1614;DHT22;800;48.824;9.346;2022-12-29T17:09:26;15.80;61.10
1614;DHT22;800;48.824;9.346;2022-12-29T17:11:55;15.90;61.20
1614;DHT22;800;48.824;9.346;2022-12-29T17:14:34;15.90;61.40
1614;DHT22;800;48.824;9.346;2022-12-29T17:17:02;15.90;61.30
1614;DHT22;800;48.824;9.346;2022-12-29T17:19:33;15.80;61.70
1614;DHT22;800;48.824;9.346;2022-12-29T17:22:00;15.70;62.00
1614;DHT22;800;48.824;9.346;2022-12-29T17:24:26;15.70;62.10
1614;DHT22;800;48.824;9.346;2022-12-29T17:26:55;15.60;62.70
1614;DHT22;800;48.824;9.346;2022-12-29T17:31:54;15.60;63.70
1614;DHT22;800;48.824;9.346;2022-12-29T17:34:20;15.60;63.50
1614;DHT22;800;48.824;9.346;2022-12-29T17:36:46;15.60;64.00
1614;DHT22;800;48.824;9.346;2022-12-29T17:39:11;15.60;63.90
1614;DHT22;800;48.824;9.346;2022-12-29T17:41:37;15.70;63.80
1614;DHT22;800;48.824;9.346;2022-12-29T17:44:04;15.70;64.50
1614;DHT22;800;48.824;9.346;2022-12-29T17:46:30;15.80;63.80
1614;DHT22;800;48.824;9.346;2022-12-29T17:48:55;15.80;63.70
1614;DHT22;800;48.824;9.346;2022-12-29T17:51:21;15.80;63.60
1614;DHT22;800;48.824;9.346;2022-12-29T17:53:47;15.80;63.50
1614;DHT22;800;48.824;9.346;2022-12-29T17:56:14;15.70;63.40
1614;DHT22;800;48.824;9.346;2022-12-29T17:58:40;15.80;63.50
1614;DHT22;800;48.824;9.346;2022-12-29T18:01:06;15.70;63.70
1614;DHT22;800;48.824;9.346;2022-12-29T18:03:37;15.70;63.80
1614;DHT22;800;48.824;9.346;2022-12-29T18:06:04;15.80;63.80
1614;DHT22;800;48.824;9.346;2022-12-29T18:08:33;15.70;63.70
1614;DHT22;800;48.824;9.346;2022-12-29T18:10:59;15.80;63.60
1614;DHT22;800;48.824;9.346;2022-12-29T18:13:27;15.80;63.70
1614;DHT22;800;48.824;9.346;2022-12-29T18:15:54;15.80;63.80
1614;DHT22;800;48.824;9.346;2022-12-29T18:18:22;15.70;63.50
1614;DHT22;800;48.824;9.346;2022-12-29T18:20:50;15.80;63.70
1614;DHT22;800;48.824;9.346;2022-12-29T18:23:25;15.80;63.60
1614;DHT22;800;48.824;9.346;2022-12-29T18:26:18;15.70;63.70
1614;DHT22;800;48.824;9.346;2022-12-29T18:28:44;15.60;63.70
1614;DHT22;800;48.824;9.346;2022-12-29T18:31:31;15.20;63.90
1614;DHT22;800;48.824;9.346;2022-12-29T18:33:58;15.00;64.70
1614;DHT22;800;48.824;9.346;2022-12-29T18:36:24;14.90;64.40
1614;DHT22;800;48.824;9.346;2022-12-29T18:38:50;14.50;65.10
1614;DHT22;800;48.824;9.346;2022-12-29T18:41:26;14.50;65.70
1614;DHT22;800;48.824;9.346;2022-12-29T18:43:54;14.70;65.30
1614;DHT22;800;48.824;9.346;2022-12-29T18:46:19;14.60;66.00
1614;DHT22;800;48.824;9.346;2022-12-29T18:48:45;14.70;66.30
1614;DHT22;800;48.824;9.346;2022-12-29T18:51:15;14.60;66.10